KNKX/NKX METAR and TAF weather

Enter ICAO airport designator
Station Type Date Time Source
KNKX METAR 2021/03/07 22:55 UTC NOAA

KNKX 072255Z 21009KT 10SM BKN200 17/09 A3002 RMK AO2 SLP163 T01720089 $


Station Type Date Time Source
KNKX Decoded METAR 2021/03/07 22:55 UTC NOAA

MCAS MIRAMAR, CA, United States (KNKX) 32-52N 117-09W 146M
Mar 07, 2021 - 05:55 PM EST / 2021.03.07 2255 UTC
Wind: from the SSW (210 degrees) at 10 MPH (9 KT):0
Visibility: 10 mile(s):0
Sky conditions: mostly cloudy
Temperature: 63.0 F (17.2 C)
Dew Point: 48.0 F (8.9 C)
Relative Humidity: 58%
Pressure (altimeter): 30.02 in. Hg (1016 hPa)
ob: KNKX 072255Z 21009KT 10SM BKN200 17/09 A3002 RMK AO2 SLP163 T01720089
cycle: 23

Station Type Date Time Source
KNKX TAF 2021/03/07 21:39 UTC NOAA

TAF KNKX 0721/0821 22007KT 9999 SCT030 BKN220 QNH2999INS
BECMG 0801/0803 17006KT 9999 OVC015 QNH3003INS
TEMPO 0810/0816 VRB05KT 6000 BR OVC011
FM081630 21006KT 9999 BKN035 QNH3013INS T18/0722Z T10/0814Z

Example: see airport list